Airfield :
LOGIN :

Register | Disclaimer

   EN    FR    IT 

 










Legend :    VFR   Marginal VFR   IFR   Intensive IFR   Very Intensive IFR
Visi :
Ceiling :
>= 8 km
>= 3000ft
5 to 8 km
1000 to 3000 ft
1500m to 5 km
500 to 1000 ft
800 to 1500m
200 to 500 ft
< 800m
< 200 ft
Symbols :   Thunderstorms  Fog  Heavy snow  Heavy precipitations  Wind > 20 kt
SIGMETs :     Misc.  Thunderstorms  Icing  Turbulence  Mountain Waves  Volcanic Ashes







- Airport Elevation : 26 ft
- IATA code : GLA
- Download approach charts


EGPF - Glasgow

CURRENT METAR :
  • 202250Z AUTO 05016KT 9999 BKN035/// //////CB 06/03 Q1016

EXPIRED METARs :
  • 202220Z AUTO 06013KT 9999 -RA SCT027/// BKN032/// //////CB 06/03 Q1017
  • 202150Z AUTO 05016KT 9999 -RA FEW025/// BKN031/// BKN037/// //////CB 06/03 Q1017
  • 202120Z AUTO 06014KT 9999 -RA FEW028/// BKN032/// BKN043/// //////TCU 06/03 Q1017
  • 202050Z AUTO 06012KT 9999 -RA SCT028/// BKN033/// OVC040/// //////TCU 06/03 Q1017
  • 202020Z AUTO 06011KT 9999 BKN033/// //////CB 06/03 Q1017

TAF TAF EGPF
Valid from the 20 at 18:00 until the 21 at 18:00 UTC


201655Z 2018/2118 06012KT 9999 SCT025
PROB40
TEMPO 2018/2113 07018G28KT 7000 SHRA
PROB40
TEMPO 2021/2113 BKN014
ATIS : +44 141 887 7449
No reported NOTAMs for that airfield.
1 SIGMET reported for the Scottish FIR (EGPX) :
 
Severe mountain waves
EGPX SIGMET 04 VALID 202100/210100 EGRR
EGPX SCOTTISH FIR SEV MTW FCST WI N5703 W00536 - N5709 W00355 - N5500 W00218 - N5500 W00525 - N5703 W00536 FL030/120 STNR NC=



MET'MAP, your aeronautical weather chart ! - Copyright ORBIFLY December 2007 - Disclaimer

ORBIFLY MET'MAP TEAM :

Programming & Development : Alexandra Zaïnal
Concept & Development : Baudouin d'Aumeries
Co-Development & Prog : Marc-Olivier Méhu
Technical & hardware support : Manuel Goepfert

Contact : metmap@orbifly.com




SOURCES & CREDITS :

   NOAA